createdAt,value
2018-06-05T00:00:06.724Z,87.53
2018-06-05T00:01:06.742Z,88.06
2018-06-05T00:02:06.763Z,88.54
2018-06-05T00:03:06.787Z,89.36
2018-06-05T00:04:06.808Z,90.99
2018-06-05T00:05:06.842Z,90.99
2018-06-05T00:06:06.852Z,90.70
2018-06-05T00:07:06.866Z,89.22
2018-06-05T00:08:06.890Z,89.98
2018-06-05T00:09:06.923Z,89.22
2018-06-05T00:10:06.928Z,89.98
2018-06-05T00:11:06.949Z,90.32
2018-06-05T00:12:06.973Z,90.03
2018-06-05T00:13:06.995Z,90.13
2018-06-05T00:14:07.015Z,89.98
2018-06-05T00:15:07.031Z,90.17
2018-06-05T00:16:07.089Z,89.75
2018-06-05T00:17:07.116Z,90.99
2018-06-05T00:18:07.095Z,91.57
2018-06-05T00:19:07.117Z,91.47
2018-06-05T00:20:07.147Z,91.28
2018-06-05T00:21:07.170Z,90.90
2018-06-05T00:22:07.186Z,91.09
2018-06-05T00:23:07.208Z,91.38
2018-06-05T00:24:07.228Z,90.75
2018-06-05T00:25:07.245Z,89.22
2018-06-05T00:26:07.275Z,88.64
2018-06-05T00:27:07.300Z,89.69
2018-06-05T00:28:07.312Z,90.17
2018-06-05T00:29:07.349Z,90.17
2018-06-05T00:30:07.369Z,89.89
2018-06-05T00:31:07.376Z,90.37
2018-06-05T00:32:07.391Z,89.98
2018-06-05T00:33:07.450Z,90.37
2018-06-05T00:34:07.457Z,90.27
2018-06-05T00:35:07.472Z,88.49
2018-06-05T00:36:07.480Z,88.68
2018-06-05T00:37:07.505Z,89.50
2018-06-05T00:38:07.560Z,89.26
2018-06-05T00:39:07.538Z,88.68
2018-06-05T00:40:07.568Z,88.78
2018-06-05T00:41:07.576Z,89.12
2018-06-05T00:42:07.627Z,89.54
2018-06-05T00:43:07.619Z,89.60
2018-06-05T00:44:07.641Z,89.50
2018-06-05T00:45:07.660Z,90.27
2018-06-05T00:46:07.681Z,89.69
2018-06-05T00:47:07.726Z,90.03
2018-06-05T00:48:07.736Z,89.69
2018-06-05T00:49:07.755Z,90.27
2018-06-05T00:50:07.778Z,89.98
2018-06-05T00:51:07.793Z,90.03
2018-06-05T00:52:07.817Z,88.39
2018-06-05T00:53:07.835Z,88.78
2018-06-05T00:54:07.864Z,87.67
2018-06-05T00:55:07.886Z,86.99
2018-06-05T00:56:07.900Z,86.04
2018-06-05T00:57:07.939Z,86.61
2018-06-05T00:58:07.951Z,87.62
2018-06-05T00:59:07.992Z,87.29
2018-06-05T01:00:08.001Z,87.19
2018-06-05T01:01:07.999Z,85.07
2018-06-05T01:02:08.024Z,83.77
2018-06-05T01:03:08.053Z,83.39
2018-06-05T01:04:08.065Z,83.48
2018-06-05T01:05:08.098Z,83.19
2018-06-05T01:06:08.114Z,83.39
2018-06-05T01:07:08.131Z,85.07
2018-06-05T01:08:08.147Z,85.21
2018-06-05T01:09:08.171Z,85.02
2018-06-05T01:10:08.187Z,85.21
2018-06-05T01:11:08.222Z,84.73
2018-06-05T01:12:08.241Z,84.40
2018-06-05T01:13:08.256Z,83.29
2018-06-05T01:14:08.297Z,83.04
2018-06-05T01:15:08.324Z,82.65
2018-06-05T01:16:08.338Z,82.90
2018-06-05T01:17:08.342Z,83.39
2018-06-05T01:18:08.367Z,83.19
2018-06-05T01:19:08.385Z,82.46
2018-06-05T01:20:08.414Z,82.27
2018-06-05T01:21:08.426Z,82.56
2018-06-05T01:22:08.451Z,82.46
2018-06-05T01:23:08.491Z,82.61
2018-06-05T01:24:08.492Z,82.27
2018-06-05T01:25:08.537Z,82.46
2018-06-05T01:26:08.530Z,81.98
2018-06-05T01:27:08.551Z,81.50
2018-06-05T01:28:08.581Z,82.52
2018-06-05T01:29:08.610Z,82.37
2018-06-05T01:30:08.703Z,82.56
2018-06-05T01:31:08.643Z,83.92
2018-06-05T01:32:08.661Z,85.36
2018-06-05T01:33:08.681Z,85.36
2018-06-05T01:34:08.711Z,85.55
2018-06-05T01:35:08.733Z,86.13
2018-06-05T01:36:08.745Z,86.80
2018-06-05T01:37:08.776Z,85.27
2018-06-05T01:38:08.791Z,84.25
2018-06-05T01:39:08.817Z,83.67
2018-06-05T01:40:08.839Z,83.39
2018-06-05T01:41:08.861Z,84.63
2018-06-05T01:42:08.874Z,84.69
2018-06-05T01:43:08.886Z,85.75
2018-06-05T01:44:08.914Z,86.22
2018-06-05T01:45:08.934Z,86.04
2018-06-05T01:46:08.961Z,85.75
2018-06-05T01:47:08.989Z,85.02
2018-06-05T01:48:09.012Z,85.17
2018-06-05T01:49:09.037Z,85.17
2018-06-05T01:50:09.058Z,85.55
2018-06-05T01:51:09.085Z,86.47
2018-06-05T01:52:09.082Z,86.42
2018-06-05T01:53:09.105Z,86.22
2018-06-05T01:54:09.119Z,85.75
2018-06-05T01:55:09.159Z,85.21
2018-06-05T01:56:09.184Z,84.69
2018-06-05T01:57:09.219Z,84.34
2018-06-05T01:58:09.218Z,84.73
2018-06-05T01:59:09.258Z,85.02
2018-06-05T02:00:09.281Z,84.63
2018-06-05T02:01:09.273Z,83.77
2018-06-05T02:02:09.290Z,84.63
2018-06-05T02:03:09.326Z,84.16
2018-06-05T02:04:09.337Z,84.44
2018-06-05T02:05:09.356Z,84.25
2018-06-05T02:06:09.386Z,84.16
2018-06-05T02:07:09.396Z,83.67
2018-06-05T02:08:09.445Z,84.63
2018-06-05T02:09:09.440Z,84.25
2018-06-05T02:10:09.457Z,83.86
2018-06-05T02:11:09.502Z,83.77
2018-06-05T02:12:09.499Z,83.29
2018-06-05T02:13:09.522Z,83.52
2018-06-05T02:14:09.547Z,83.72
2018-06-05T02:15:09.573Z,82.56
2018-06-05T02:16:09.583Z,82.94
2018-06-05T02:17:09.619Z,83.39
2018-06-05T02:18:09.628Z,84.06
2018-06-05T02:19:09.648Z,84.25
2018-06-05T02:20:09.662Z,85.40
2018-06-05T02:21:09.687Z,85.21
2018-06-05T02:22:09.722Z,84.34
2018-06-05T02:23:09.747Z,84.73
2018-06-05T02:24:09.753Z,85.21
2018-06-05T02:25:09.772Z,85.21
2018-06-05T02:26:09.792Z,84.83
2018-06-05T02:27:09.814Z,84.54
2018-06-05T02:28:09.849Z,84.54
2018-06-05T02:29:09.882Z,85.36
2018-06-05T02:30:09.911Z,85.21
2018-06-05T02:31:09.905Z,84.83
2018-06-05T02:32:09.943Z,85.50
2018-06-05T02:33:09.966Z,85.21
2018-06-05T02:34:09.970Z,84.83
2018-06-05T02:35:09.988Z,85.11
2018-06-05T02:36:10.005Z,85.27
2018-06-05T02:37:10.025Z,85.84
2018-06-05T02:38:10.063Z,85.02
2018-06-05T02:39:10.075Z,86.32
2018-06-05T02:40:10.093Z,87.19
2018-06-05T02:41:10.112Z,86.95
2018-06-05T02:42:10.128Z,87.82
2018-06-05T02:43:10.182Z,88.01
2018-06-05T02:44:10.178Z,87.62
2018-06-05T02:45:10.190Z,87.62
2018-06-05T02:46:10.228Z,88.78
2018-06-05T02:47:10.235Z,88.20
2018-06-05T02:48:10.258Z,86.99
2018-06-05T02:49:10.282Z,86.80
2018-06-05T02:50:10.300Z,86.52
2018-06-05T02:51:10.368Z,86.38
2018-06-05T02:52:10.342Z,86.52
2018-06-05T02:53:10.361Z,86.13
2018-06-05T02:54:10.416Z,86.66
2018-06-05T02:55:10.407Z,86.47
2018-06-05T02:56:10.422Z,88.01
2018-06-05T02:57:10.445Z,86.90
2018-06-05T02:58:10.467Z,87.24
2018-06-05T02:59:10.488Z,86.47
2018-06-05T03:00:10.510Z,86.42
2018-06-05T03:01:10.531Z,85.84
2018-06-05T03:02:10.560Z,85.36
2018-06-05T03:03:10.571Z,85.84
2018-06-05T03:04:10.607Z,85.65
2018-06-05T03:05:10.612Z,86.76
2018-06-05T03:06:10.630Z,87.72
2018-06-05T03:07:10.644Z,87.39
2018-06-05T03:08:10.680Z,87.82
2018-06-05T03:09:10.691Z,86.47
2018-06-05T03:10:10.711Z,85.99
2018-06-05T03:11:10.744Z,85.99
2018-06-05T03:12:10.777Z,85.51
2018-06-05T03:13:10.774Z,85.71
2018-06-05T03:14:10.822Z,85.51
2018-06-05T03:15:10.826Z,85.36
2018-06-05T03:16:10.848Z,85.46
2018-06-05T03:17:10.862Z,85.65
2018-06-05T03:18:10.887Z,85.07
2018-06-05T03:19:10.896Z,84.88
2018-06-05T03:20:10.919Z,84.94
2018-06-05T03:21:10.942Z,84.36
2018-06-05T03:22:10.958Z,84.59
2018-06-05T03:23:10.997Z,84.45
2018-06-05T03:24:11.001Z,84.84
2018-06-05T03:25:11.034Z,84.07
2018-06-05T03:26:11.042Z,83.97
2018-06-05T03:27:11.065Z,83.59
2018-06-05T03:28:11.086Z,83.44
2018-06-05T03:29:11.109Z,83.87
2018-06-05T03:30:11.149Z,83.40
2018-06-05T03:31:11.153Z,83.30
2018-06-05T03:32:11.167Z,83.11
2018-06-05T03:33:11.189Z,83.53
2018-06-05T03:34:11.210Z,82.63
2018-06-05T03:35:11.237Z,82.73
2018-06-05T03:36:11.257Z,82.82
2018-06-05T03:37:11.278Z,83.74
2018-06-05T03:38:11.296Z,85.47
2018-06-05T03:39:11.314Z,84.26
2018-06-05T03:40:11.346Z,84.22
2018-06-05T03:41:11.356Z,84.70
2018-06-05T03:42:11.384Z,84.26
2018-06-05T03:43:11.407Z,83.40
2018-06-05T03:44:11.417Z,84.07
2018-06-05T03:45:11.436Z,83.49
2018-06-05T03:46:11.459Z,83.30
2018-06-05T03:47:11.476Z,83.11
2018-06-05T03:48:11.496Z,83.16
2018-06-05T03:49:11.517Z,84.22
2018-06-05T03:50:11.570Z,83.30
2018-06-05T03:51:11.623Z,83.16
2018-06-05T03:52:11.611Z,83.45
2018-06-05T03:53:11.606Z,83.84
2018-06-05T03:54:11.637Z,83.36
2018-06-05T03:55:11.644Z,84.51
2018-06-05T03:56:11.662Z,84.89
2018-06-05T03:57:11.740Z,84.31
2018-06-05T03:58:11.704Z,83.74
2018-06-05T03:59:11.725Z,84.12
2018-06-05T04:00:11.766Z,84.41
2018-06-05T04:01:11.764Z,84.95
2018-06-05T04:02:11.789Z,85.33
2018-06-05T04:03:11.811Z,86.00
2018-06-05T04:04:11.827Z,85.42
2018-06-05T04:05:11.849Z,85.91
2018-06-05T04:06:11.868Z,84.51
2018-06-05T04:07:11.895Z,84.03
2018-06-05T04:08:11.917Z,84.22
2018-06-05T04:09:11.941Z,83.84
2018-06-05T04:10:11.948Z,83.45
2018-06-05T04:11:11.969Z,83.36
2018-06-05T04:12:11.995Z,83.36
2018-06-05T04:13:12.033Z,83.74
2018-06-05T04:14:12.045Z,83.20
2018-06-05T04:15:12.056Z,83.40
2018-06-05T04:16:12.079Z,82.34
2018-06-05T04:17:12.117Z,82.73
2018-06-05T04:18:12.126Z,82.05
2018-06-05T04:19:12.140Z,82.05
2018-06-05T04:20:12.164Z,81.67
2018-06-05T04:21:12.198Z,81.48
2018-06-05T04:22:12.198Z,82.34
2018-06-05T04:23:12.233Z,83.30
2018-06-05T04:24:12.238Z,83.49
2018-06-05T04:25:12.261Z,83.74
2018-06-05T04:26:12.284Z,84.03
2018-06-05T04:27:12.353Z,83.84
2018-06-05T04:28:12.355Z,83.26
2018-06-05T04:29:12.344Z,83.54
2018-06-05T04:30:12.378Z,84.41
2018-06-05T04:31:12.393Z,84.41
2018-06-05T04:32:12.415Z,83.69
2018-06-05T04:33:12.437Z,82.63
2018-06-05T04:34:12.453Z,82.53
2018-06-05T04:35:12.467Z,82.68
2018-06-05T04:36:12.530Z,83.45
2018-06-05T04:37:12.525Z,83.45
2018-06-05T04:38:12.535Z,83.84
2018-06-05T04:39:12.557Z,83.54
2018-06-05T04:40:12.588Z,82.40
2018-06-05T04:41:12.597Z,82.40
2018-06-05T04:42:12.622Z,83.41
2018-06-05T04:43:12.630Z,84.85
2018-06-05T04:44:12.655Z,84.47
2018-06-05T04:45:12.677Z,83.45
2018-06-05T04:46:12.695Z,83.26
2018-06-05T04:47:12.713Z,82.87
2018-06-05T04:48:12.740Z,82.59
2018-06-05T04:49:12.763Z,82.59
2018-06-05T04:50:12.785Z,82.34
2018-06-05T04:51:12.805Z,81.48
2018-06-05T04:52:12.836Z,81.67
2018-06-05T04:53:12.884Z,81.19
2018-06-05T04:54:12.859Z,81.28
2018-06-05T04:55:12.878Z,80.99
2018-06-05T04:56:12.901Z,81.15
2018-06-05T04:57:12.920Z,81.67
2018-06-05T04:58:12.937Z,81.38
2018-06-05T04:59:12.984Z,80.80
2018-06-05T05:00:12.980Z,80.51
2018-06-05T05:01:13.000Z,80.90
2018-06-05T05:02:13.021Z,80.71
2018-06-05T05:03:13.043Z,80.04
2018-06-05T05:04:13.063Z,80.71
2018-06-05T05:05:13.119Z,80.80
2018-06-05T05:06:13.111Z,80.71
2018-06-05T05:07:13.122Z,80.80
2018-06-05T05:08:13.143Z,81.19
2018-06-05T05:09:13.165Z,81.38
2018-06-05T05:10:13.191Z,81.19
2018-06-05T05:11:13.211Z,80.90
2018-06-05T05:12:13.224Z,81.09
2018-06-05T05:13:13.248Z,80.51
2018-06-05T05:14:13.267Z,80.32
2018-06-05T05:15:13.293Z,80.36
2018-06-05T05:16:13.326Z,79.60
2018-06-05T05:17:13.351Z,79.88
2018-06-05T05:18:13.361Z,79.69
2018-06-05T05:19:13.379Z,79.79
2018-06-05T05:20:13.397Z,79.60
2018-06-05T05:21:13.427Z,79.88
2018-06-05T05:22:13.444Z,79.55
2018-06-05T05:23:13.463Z,79.60
2018-06-05T05:24:13.480Z,79.11
2018-06-05T05:25:13.506Z,79.30
2018-06-05T05:26:13.528Z,79.21
2018-06-05T05:27:13.544Z,77.76
2018-06-05T05:28:13.563Z,77.96
2018-06-05T05:29:13.595Z,77.90
2018-06-05T05:30:13.606Z,77.76
2018-06-05T05:31:13.622Z,77.76
2018-06-05T05:32:13.661Z,78.15
2018-06-05T05:33:13.665Z,78.15
2018-06-05T05:34:13.697Z,78.15
2018-06-05T05:35:13.729Z,77.81
2018-06-05T05:36:13.736Z,76.75
2018-06-05T05:37:13.746Z,77.51
2018-06-05T05:38:13.772Z,76.84
2018-06-05T05:39:13.831Z,76.94
2018-06-05T05:40:13.829Z,77.61
2018-06-05T05:41:13.837Z,78.44
2018-06-05T05:42:13.858Z,78.53
2018-06-05T05:43:13.901Z,78.73
2018-06-05T05:44:13.895Z,78.15
2018-06-05T05:45:13.927Z,78.67
2018-06-05T05:46:13.942Z,77.76
2018-06-05T05:47:13.961Z,78.63
2018-06-05T05:48:13.981Z,78.73
2018-06-05T05:49:14.023Z,78.73
2018-06-05T05:50:14.039Z,78.15
2018-06-05T05:51:14.067Z,78.53
2018-06-05T05:52:14.071Z,78.53
2018-06-05T05:53:14.109Z,77.96
2018-06-05T05:54:14.110Z,78.63
2018-06-05T05:55:14.149Z,78.83
2018-06-05T05:56:14.152Z,79.27
2018-06-05T05:57:14.186Z,79.75
2018-06-05T05:58:14.201Z,78.73
2018-06-05T05:59:14.217Z,78.92
2018-06-05T06:00:14.264Z,78.83
2018-06-05T06:01:14.255Z,79.11
2018-06-05T06:02:14.391Z,79.84
2018-06-05T06:03:14.296Z,79.40
2018-06-05T06:04:14.318Z,79.69
2018-06-05T06:05:14.336Z,80.61
2018-06-05T06:06:14.363Z,81.43
2018-06-05T06:07:14.396Z,82.01
2018-06-05T06:08:14.410Z,82.30
2018-06-05T06:09:14.431Z,82.59
2018-06-05T06:10:14.470Z,82.30
2018-06-05T06:11:14.470Z,81.76
2018-06-05T06:12:14.493Z,81.28
2018-06-05T06:13:14.521Z,81.43
2018-06-05T06:14:14.531Z,82.43
2018-06-05T06:15:14.568Z,82.59
2018-06-05T06:16:14.584Z,82.43
2018-06-05T06:17:14.614Z,82.59
2018-06-05T06:18:14.619Z,84.22
2018-06-05T06:19:14.638Z,82.82
2018-06-05T06:20:14.658Z,80.75
2018-06-05T06:21:14.677Z,80.07
2018-06-05T06:22:14.699Z,79.88
2018-06-05T06:23:14.721Z,80.22
2018-06-05T06:24:14.759Z,81.57
2018-06-05T06:25:14.816Z,81.92
2018-06-05T06:26:14.784Z,82.40
2018-06-05T06:27:14.805Z,83.54
2018-06-05T06:28:14.837Z,83.45
2018-06-05T06:29:14.853Z,83.36
2018-06-05T06:30:14.864Z,83.26
2018-06-05T06:31:14.903Z,84.03
2018-06-05T06:32:14.906Z,83.45
2018-06-05T06:33:14.929Z,84.51
2018-06-05T06:34:14.954Z,85.24
2018-06-05T06:35:14.973Z,84.95
2018-06-05T06:36:14.998Z,84.70
2018-06-05T06:37:15.012Z,84.47
2018-06-05T06:38:15.029Z,84.80
2018-06-05T06:39:15.083Z,84.31
2018-06-05T06:40:15.082Z,83.54
2018-06-05T06:41:15.111Z,83.54
2018-06-05T06:42:15.118Z,83.74
2018-06-05T06:43:15.146Z,84.85
2018-06-05T06:44:15.162Z,84.80
2018-06-05T06:45:15.185Z,84.12
2018-06-05T06:46:15.204Z,83.84
2018-06-05T06:47:15.219Z,83.54
2018-06-05T06:48:15.240Z,83.45
2018-06-05T06:49:15.261Z,83.84
2018-06-05T06:50:15.275Z,83.26
2018-06-05T06:51:15.304Z,82.68
2018-06-05T06:52:15.324Z,82.20
2018-06-05T06:53:15.344Z,82.63
2018-06-05T06:54:15.362Z,82.68
2018-06-05T06:55:15.406Z,83.74
2018-06-05T06:56:15.418Z,83.45
2018-06-05T06:57:15.429Z,84.41
2018-06-05T06:58:15.450Z,84.12
2018-06-05T06:59:15.510Z,83.36
2018-06-05T07:00:15.501Z,82.73
2018-06-05T07:01:15.511Z,83.26
2018-06-05T07:02:15.578Z,83.93
2018-06-05T07:03:15.553Z,83.07
2018-06-05T07:04:15.569Z,82.49
2018-06-05T07:05:15.596Z,83.64
2018-06-05T07:06:15.610Z,83.98
2018-06-05T07:07:15.629Z,83.45
2018-06-05T07:08:15.664Z,83.45
2018-06-05T07:09:15.681Z,83.26
2018-06-05T07:10:15.704Z,82.63
2018-06-05T07:11:15.721Z,81.67
2018-06-05T07:12:15.750Z,81.48
2018-06-05T07:13:15.764Z,81.76
2018-06-05T07:14:15.773Z,81.76
2018-06-05T07:15:15.797Z,82.40
2018-06-05T07:16:15.817Z,81.76
2018-06-05T07:17:15.839Z,83.26
2018-06-05T07:18:15.892Z,83.98
2018-06-05T07:19:15.888Z,84.51
2018-06-05T07:20:15.902Z,84.66
2018-06-05T07:21:15.929Z,83.74
2018-06-05T07:22:15.969Z,83.01
2018-06-05T07:23:15.987Z,83.16
2018-06-05T07:24:15.989Z,83.70
2018-06-05T07:25:16.015Z,84.31
2018-06-05T07:26:16.041Z,84.22
2018-06-05T07:27:16.044Z,83.26
2018-06-05T07:28:16.073Z,82.49
2018-06-05T07:29:16.092Z,83.60
2018-06-05T07:30:16.182Z,83.36
2018-06-05T07:31:16.160Z,82.68
2018-06-05T07:32:16.159Z,82.59
2018-06-05T07:33:16.203Z,82.59
2018-06-05T07:34:16.190Z,83.54
2018-06-05T07:35:16.212Z,82.87
2018-06-05T07:36:16.272Z,82.05
2018-06-05T07:37:16.253Z,82.01
2018-06-05T07:38:16.279Z,82.49
2018-06-05T07:39:16.316Z,83.36
2018-06-05T07:40:16.317Z,81.86
2018-06-05T07:41:16.335Z,81.96
2018-06-05T07:42:16.360Z,82.59
2018-06-05T07:43:16.388Z,82.43
2018-06-05T07:44:16.441Z,81.48
2018-06-05T07:45:16.421Z,80.65
2018-06-05T07:46:16.446Z,80.55
2018-06-05T07:47:16.463Z,80.90
2018-06-05T07:48:16.490Z,81.19
2018-06-05T07:49:16.510Z,80.99
2018-06-05T07:50:16.561Z,81.57
2018-06-05T07:51:16.547Z,82.40
2018-06-05T07:52:16.573Z,82.05
2018-06-05T07:53:16.596Z,81.76
2018-06-05T07:54:16.607Z,82.40
2018-06-05T07:55:16.631Z,81.86
2018-06-05T07:56:16.662Z,82.24
2018-06-05T07:57:16.672Z,80.99
2018-06-05T07:58:16.686Z,81.28
2018-06-05T07:59:16.728Z,81.19
2018-06-05T08:00:16.734Z,81.67
2018-06-05T08:01:16.752Z,82.15
2018-06-05T08:02:16.780Z,81.52
2018-06-05T08:03:16.796Z,80.55
2018-06-05T08:04:16.831Z,80.94
2018-06-05T08:05:16.852Z,80.65
2018-06-05T08:06:16.862Z,80.17
2018-06-05T08:07:16.882Z,80.75
2018-06-05T08:08:16.903Z,79.53
2018-06-05T08:09:16.925Z,77.71
2018-06-05T08:10:16.943Z,78.86
2018-06-05T08:11:16.975Z,79.50
2018-06-05T08:12:16.985Z,79.88
2018-06-05T08:13:17.013Z,79.21
2018-06-05T08:14:17.026Z,79.63
2018-06-05T08:15:17.071Z,78.96
2018-06-05T08:16:17.080Z,78.58
2018-06-05T08:17:17.101Z,78.48
2018-06-05T08:18:17.114Z,77.81
2018-06-05T08:19:17.148Z,78.92
2018-06-05T08:20:17.163Z,78.38
2018-06-05T08:21:17.179Z,78.58
2018-06-05T08:22:17.207Z,78.48
2018-06-05T08:23:17.245Z,78.00
2018-06-05T08:24:17.259Z,77.90
2018-06-05T08:25:17.262Z,78.53
2018-06-05T08:26:17.283Z,77.81
2018-06-05T08:27:17.315Z,78.58
2018-06-05T08:28:17.329Z,77.81
2018-06-05T08:29:17.356Z,77.51
2018-06-05T08:30:17.384Z,76.75
2018-06-05T08:31:17.400Z,76.98
2018-06-05T08:32:17.429Z,76.50
2018-06-05T08:33:17.438Z,76.78
2018-06-05T08:34:17.462Z,77.38
2018-06-05T08:35:17.476Z,78.86
2018-06-05T08:36:17.514Z,78.25
2018-06-05T08:37:17.517Z,78.09
2018-06-05T08:38:17.548Z,77.71
2018-06-05T08:39:17.561Z,77.51
2018-06-05T08:40:17.589Z,77.90
2018-06-05T08:41:17.615Z,79.50
2018-06-05T08:42:17.629Z,79.35
2018-06-05T08:43:17.647Z,78.63
2018-06-05T08:44:17.670Z,78.00
2018-06-05T08:45:17.761Z,77.33
2018-06-05T08:46:17.720Z,76.01
2018-06-05T08:47:17.751Z,75.98
2018-06-05T08:48:17.760Z,77.51
2018-06-05T08:49:17.785Z,77.51
2018-06-05T08:50:17.793Z,75.82
2018-06-05T08:51:17.837Z,75.67
2018-06-05T08:52:17.847Z,74.13
2018-06-05T08:53:17.868Z,74.03
2018-06-05T08:54:17.918Z,74.71
2018-06-05T08:55:17.909Z,76.01
2018-06-05T08:56:17.938Z,76.40
2018-06-05T08:57:17.971Z,76.40
2018-06-05T08:58:17.978Z,76.21
2018-06-05T08:59:18.005Z,75.09
2018-06-05T09:00:18.026Z,74.76
2018-06-05T09:01:18.050Z,75.57
2018-06-05T09:02:18.056Z,76.01
2018-06-05T09:03:18.102Z,76.01
2018-06-05T09:04:18.118Z,76.31
2018-06-05T09:05:18.184Z,76.21
2018-06-05T09:06:18.149Z,75.76
2018-06-05T09:07:18.189Z,74.13
2018-06-05T09:08:18.196Z,73.36
2018-06-05T09:09:18.214Z,73.46
2018-06-05T09:10:18.235Z,73.10
2018-06-05T09:11:18.267Z,72.56
2018-06-05T09:12:18.287Z,73.46
2018-06-05T09:13:18.305Z,72.72
2018-06-05T09:14:18.332Z,72.63
2018-06-05T09:15:18.347Z,73.07
2018-06-05T09:16:18.368Z,72.11
2018-06-05T09:17:18.391Z,71.95
2018-06-05T09:18:18.416Z,70.98
2018-06-05T09:19:18.439Z,70.73
2018-06-05T09:20:18.456Z,70.12
2018-06-05T09:21:18.481Z,69.96
2018-06-05T09:22:18.503Z,69.48
2018-06-05T09:23:18.526Z,68.93
2018-06-05T09:24:18.535Z,69.03
2018-06-05T09:25:18.560Z,68.61
2018-06-05T09:26:18.579Z,69.48
2018-06-05T09:27:18.603Z,69.19
2018-06-05T09:28:18.650Z,68.99
2018-06-05T09:29:18.660Z,69.38
2018-06-05T09:30:18.702Z,69.29
2018-06-05T09:31:18.699Z,69.96
2018-06-05T09:32:18.714Z,69.77
2018-06-05T09:33:18.743Z,70.06
2018-06-05T09:34:18.805Z,69.13
2018-06-05T09:35:18.808Z,68.35
2018-06-05T09:36:18.835Z,67.68
2018-06-05T09:37:18.842Z,67.71
2018-06-05T09:38:18.852Z,68.58
2018-06-05T09:39:18.880Z,70.50
2018-06-05T09:40:18.892Z,71.08
2018-06-05T09:41:18.924Z,71.02
2018-06-05T09:42:18.961Z,69.96
2018-06-05T09:43:18.971Z,68.65
2018-06-05T09:44:18.980Z,67.58
2018-06-05T09:45:19.055Z,66.94
2018-06-05T09:46:19.021Z,67.84
2018-06-05T09:47:19.061Z,69.87
2018-06-05T09:48:19.090Z,70.06
2018-06-05T09:49:19.111Z,68.26
2018-06-05T09:50:19.119Z,67.97
2018-06-05T09:51:19.136Z,67.49
2018-06-05T09:52:19.170Z,67.78
2018-06-05T09:53:19.182Z,67.58
2018-06-05T09:54:19.210Z,67.74
2018-06-05T09:55:19.237Z,68.42
2018-06-05T09:56:19.257Z,68.32
2018-06-05T09:57:19.276Z,67.88
2018-06-05T09:58:19.395Z,67.68
2018-06-05T09:59:19.346Z,66.94
2018-06-05T10:00:19.359Z,65.88
2018-06-05T10:01:19.356Z,65.30
2018-06-05T10:02:19.378Z,65.24
2018-06-05T10:03:19.439Z,65.53
2018-06-05T10:04:19.460Z,66.04
2018-06-05T10:05:19.465Z,67.46
2018-06-05T10:06:19.506Z,67.33
2018-06-05T10:07:19.498Z,65.53
2018-06-05T10:08:19.531Z,65.47
2018-06-05T10:09:19.551Z,64.59
2018-06-05T10:10:19.575Z,64.31
2018-06-05T10:11:19.585Z,64.40
2018-06-05T10:12:19.615Z,64.86
2018-06-05T10:13:19.648Z,65.08
2018-06-05T10:14:19.666Z,64.11
2018-06-05T10:15:19.676Z,64.21
2018-06-05T10:16:19.741Z,63.82
2018-06-05T10:17:19.737Z,62.89
2018-06-05T10:18:19.765Z,62.66
2018-06-05T10:19:19.771Z,63.15
2018-06-05T10:20:19.825Z,62.95
2018-06-05T10:21:19.825Z,63.28
2018-06-05T10:22:19.859Z,62.66
2018-06-05T10:23:19.868Z,63.28
2018-06-05T10:24:19.899Z,62.89
2018-06-05T10:25:19.908Z,61.66
2018-06-05T10:26:19.931Z,60.50
2018-06-05T10:27:19.966Z,61.63
2018-06-05T10:28:19.991Z,62.70
2018-06-05T10:29:20.020Z,62.70
2018-06-05T10:30:20.032Z,61.92
2018-06-05T10:31:20.063Z,61.44
2018-06-05T10:32:20.095Z,61.76
2018-06-05T10:33:20.107Z,60.89
2018-06-05T10:34:20.129Z,63.24
2018-06-05T10:35:20.153Z,64.18
2018-06-05T10:36:20.172Z,66.24
2018-06-05T10:37:20.211Z,67.46
2018-06-05T10:38:20.217Z,67.94
2018-06-05T10:39:20.232Z,67.30
2018-06-05T10:40:20.256Z,67.97
2018-06-05T10:41:20.309Z,66.97
2018-06-05T10:42:20.328Z,64.59
2018-06-05T10:43:20.326Z,64.21
2018-06-05T10:44:20.357Z,65.17
2018-06-05T10:45:20.389Z,64.59
2018-06-05T10:46:20.414Z,64.98
2018-06-05T10:47:20.427Z,64.28
2018-06-05T10:48:20.487Z,63.73
2018-06-05T10:49:20.472Z,63.18
2018-06-05T10:50:20.497Z,65.24
2018-06-05T10:51:20.521Z,64.01
2018-06-05T10:52:20.541Z,63.02
2018-06-05T10:53:20.558Z,61.50
2018-06-05T10:54:20.588Z,61.18
2018-06-05T10:55:20.622Z,61.18
2018-06-05T10:56:20.647Z,61.11
2018-06-05T10:57:20.677Z,60.57
2018-06-05T10:58:20.675Z,59.56
2018-06-05T10:59:20.725Z,59.40
2018-06-05T11:00:20.760Z,59.11
2018-06-05T11:01:20.768Z,59.21
2018-06-05T11:02:20.776Z,58.04
2018-06-05T11:03:20.793Z,60.11
2018-06-05T11:04:20.839Z,63.08
2018-06-05T11:05:20.848Z,63.63
2018-06-05T11:06:20.868Z,64.98
2018-06-05T11:07:20.896Z,65.34
2018-06-05T11:08:20.912Z,66.88
2018-06-05T11:09:20.940Z,63.66
2018-06-05T11:10:20.967Z,64.31
2018-06-05T11:11:20.984Z,64.56
2018-06-05T11:12:21.018Z,65.88
2018-06-05T11:13:21.045Z,66.36
2018-06-05T11:14:21.059Z,67.55
2018-06-05T11:15:21.096Z,65.56
2018-06-05T11:16:21.121Z,63.31
2018-06-05T11:17:21.127Z,62.95
2018-06-05T11:18:21.199Z,63.66
2018-06-05T11:19:21.177Z,63.50
2018-06-05T11:20:21.196Z,63.18
2018-06-05T11:21:21.220Z,62.70
2018-06-05T11:22:21.248Z,62.98
2018-06-05T11:23:21.280Z,63.66
2018-06-05T11:24:21.303Z,61.47
2018-06-05T11:25:21.336Z,62.73
2018-06-05T11:26:21.335Z,62.50
2018-06-05T11:27:21.370Z,62.40
2018-06-05T11:28:21.412Z,62.76
2018-06-05T11:29:21.409Z,62.66
2018-06-05T11:30:21.452Z,63.63
2018-06-05T11:31:21.461Z,63.37
2018-06-05T11:32:21.493Z,61.47
2018-06-05T11:33:21.507Z,62.89
2018-06-05T11:34:21.539Z,62.95
2018-06-05T11:35:21.557Z,64.59
2018-06-05T11:36:21.591Z,64.69
2018-06-05T11:37:21.615Z,64.24
2018-06-05T11:38:21.630Z,61.66
2018-06-05T11:39:21.674Z,62.73
2018-06-05T11:40:21.682Z,62.27
2018-06-05T11:41:21.700Z,60.47
2018-06-05T11:42:21.725Z,61.73
2018-06-05T11:43:21.751Z,62.76
2018-06-05T11:44:21.774Z,61.53
2018-06-05T11:45:21.791Z,60.11
2018-06-05T11:46:21.818Z,59.50
2018-06-05T11:47:21.848Z,61.53
2018-06-05T11:48:21.885Z,60.86
2018-06-05T11:49:21.895Z,63.73
2018-06-05T11:50:21.922Z,64.69
2018-06-05T11:51:21.936Z,66.08
2018-06-05T11:52:21.969Z,64.53
2018-06-05T11:53:21.984Z,63.95
2018-06-05T11:54:22.005Z,64.59
2018-06-05T11:55:22.053Z,65.08
2018-06-05T11:56:22.053Z,65.40
2018-06-05T11:57:22.077Z,63.95
2018-06-05T11:58:22.103Z,64.66
2018-06-05T11:59:22.159Z,61.72
2018-06-05T12:00:22.151Z,60.04
2018-06-05T12:01:22.175Z,58.52
2018-06-05T12:02:22.207Z,57.00
2018-06-05T12:03:22.231Z,57.39
2018-06-05T12:04:22.247Z,56.28
2018-06-05T12:05:22.271Z,54.44
2018-06-05T12:06:22.292Z,54.53
2018-06-05T12:07:22.319Z,56.36
2018-06-05T12:08:22.348Z,59.50
2018-06-05T12:09:22.374Z,59.27
2018-06-05T12:10:22.420Z,59.95
2018-06-05T12:11:22.430Z,60.92
2018-06-05T12:12:22.452Z,60.44
2018-06-05T12:13:22.471Z,58.78
2018-06-05T12:14:22.498Z,57.43
2018-06-05T12:15:22.536Z,58.14
2018-06-05T12:16:22.542Z,57.07
2018-06-05T12:17:22.569Z,57.09
2018-06-05T12:18:22.597Z,56.25
2018-06-05T12:19:22.612Z,55.08
2018-06-05T12:20:22.638Z,56.68
2018-06-05T12:21:22.664Z,56.41
2018-06-05T12:22:22.684Z,56.20
2018-06-05T12:23:22.707Z,56.41
2018-06-05T12:24:22.753Z,56.45
2018-06-05T12:25:22.799Z,55.28
2018-06-05T12:26:22.801Z,56.32
2018-06-05T12:27:22.808Z,56.61
2018-06-05T12:28:22.835Z,57.29
2018-06-05T12:29:22.867Z,56.25
2018-06-05T12:30:22.887Z,56.87
2018-06-05T12:31:22.902Z,58.23
2018-06-05T12:32:22.928Z,59.00
2018-06-05T12:33:22.951Z,57.14
2018-06-05T12:34:22.979Z,57.88
2018-06-05T12:35:23.003Z,60.17
2018-06-05T12:36:23.026Z,61.11
2018-06-05T12:37:23.060Z,58.98
2018-06-05T12:38:23.080Z,59.23
2018-06-05T12:39:23.107Z,59.82
2018-06-05T12:40:23.130Z,61.43
2018-06-05T12:41:23.163Z,60.57
2018-06-05T12:42:23.166Z,59.50
2018-06-05T12:43:23.211Z,59.10
2018-06-05T12:44:23.226Z,58.06
2018-06-05T12:45:23.244Z,56.81
2018-06-05T12:46:23.303Z,56.05
2018-06-05T12:47:23.294Z,55.11
2018-06-05T12:48:23.325Z,55.26
2018-06-05T12:49:23.346Z,58.01
2018-06-05T12:50:23.363Z,59.46
2018-06-05T12:51:23.408Z,59.00
2018-06-05T12:52:23.427Z,59.10